This is the latest recevied weather packets stored in our database for station/object EA5CBT-13. If no packets are shown the sender has not sent any weather packets the latest 10 day(s).
| Time | Temp. | Humidity | Pressure | Rain* | Wind** | Luminosity | Snow |
|---|---|---|---|---|---|---|---|
| 1778082366 | 21.11° C | 64% | 1007.8 hPa | 0 mm | - | - | - |
| 1778077563 | 22.22° C | 60% | 1007.8 hPa | 0 mm | - | - | - |
| 1778075134 | 22.22° C | 57% | 1008.2 hPa | 0 mm | - | - | - |
| 1778070330 | 22.22° C | 63% | 1008.7 hPa | 0 mm | - | - | - |
| 1778069722 | 22.22° C | 60% | 1008.8 hPa | 0 mm | - | - | - |
| 1778067352 | 22.78° C | 57% | 1009 hPa | 0 mm | - | - | - |
| 1778066137 | 22.22° C | 62% | 1009.1 hPa | 0 mm | - | - | - |
| 1778064375 | 21.67° C | 63% | 1009.1 hPa | 0 mm | - | - | - |
| 1778063766 | 21.67° C | 62% | 1009.1 hPa | 0 mm | - | - | - |
| 1778061943 | 22.78° C | 56% | 1009.2 hPa | 0 mm | - | - | - |
| 1778060140 | 22.22° C | 60% | 1009 hPa | 0 mm | - | - | - |
| 1778057750 | 21.67° C | 60% | 1008.6 hPa | 0 mm | - | - | - |
| 1778057142 | 21.67° C | 61% | 1008.5 hPa | 0 mm | - | - | - |
| 1778054772 | 21.67° C | 61% | 1008.6 hPa | 0 mm | - | - | - |
| 1778051734 | 21.11° C | 60% | 1008.7 hPa | 0 mm | - | - | - |
| 1778051126 | 20.56° C | 54% | 1008.8 hPa | 0 mm | - | - | - |
| 1778048149 | 18.33° C | 47% | 1008.7 hPa | 0 mm | - | - | - |
| 1778043956 | 15.56° C | 61% | 1007.7 hPa | 0 mm | - | - | - |
| 1778039763 | 16.11° C | 75% | 1007.4 hPa | 0 mm | - | - | - |
| 1778038548 | 16.11° C | 76% | 1007.6 hPa | 0 mm | - | - | - |
| 1778031318 | 16.67° C | 73% | 1007.8 hPa | 0 mm | - | - | - |
| 1778025364 | 17.22° C | 72% | 1008.1 hPa | 0 mm | - | - | - |
| 1778021719 | 16.67° C | 78% | 1008.4 hPa | 0 mm | - | - | - |
| 1778021173 | 16.67° C | 78% | 1008.4 hPa | 0 mm | - | - | - |
| 1778019958 | 17.22° C | 79% | 1008.3 hPa | 0 mm | - | - | - |
* Rain latest hour (hover to see other rain measurements)
** Current wind speed in m/s (hover to see current wind gust speed)